sensor_id;sensor_type;location;lat;lon;timestamp;P1;durP1;ratioP1;P2;durP2;ratioP2
28245;SDS011;15510;52.512;13.300;2023-07-20T00:01:46;4.53;;;2.42;;
28245;SDS011;15510;52.512;13.300;2023-07-20T00:04:12;3.17;;;2.20;;
28245;SDS011;15510;52.512;13.300;2023-07-20T00:06:38;3.13;;;2.60;;
28245;SDS011;15510;52.512;13.300;2023-07-20T00:09:05;3.97;;;2.50;;
28245;SDS011;15510;52.512;13.300;2023-07-20T00:11:32;3.58;;;2.80;;
28245;SDS011;15510;52.512;13.300;2023-07-20T00:14:01;6.57;;;2.90;;
28245;SDS011;15510;52.512;13.300;2023-07-20T00:16:27;3.60;;;2.70;;
28245;SDS011;15510;52.512;13.300;2023-07-20T00:18:53;2.50;;;2.30;;
28245;SDS011;15510;52.512;13.300;2023-07-20T00:21:18;3.05;;;2.60;;
28245;SDS011;15510;52.512;13.300;2023-07-20T00:23:45;3.92;;;2.47;;
28245;SDS011;15510;52.512;13.300;2023-07-20T00:26:10;3.60;;;2.65;;
28245;SDS011;15510;52.512;13.300;2023-07-20T00:28:36;2.60;;;2.40;;
28245;SDS011;15510;52.512;13.300;2023-07-20T00:31:02;6.00;;;2.85;;
28245;SDS011;15510;52.512;13.300;2023-07-20T00:33:28;2.95;;;2.45;;
28245;SDS011;15510;52.512;13.300;2023-07-20T00:35:54;4.97;;;2.60;;
28245;SDS011;15510;52.512;13.300;2023-07-20T00:38:19;3.97;;;3.00;;
28245;SDS011;15510;52.512;13.300;2023-07-20T00:40:47;3.60;;;2.90;;
28245;SDS011;15510;52.512;13.300;2023-07-20T00:43:14;4.47;;;3.15;;
28245;SDS011;15510;52.512;13.300;2023-07-20T00:45:40;5.28;;;3.20;;
28245;SDS011;15510;52.512;13.300;2023-07-20T00:48:06;3.03;;;2.83;;
28245;SDS011;15510;52.512;13.300;2023-07-20T00:50:33;3.20;;;2.83;;
28245;SDS011;15510;52.512;13.300;2023-07-20T00:53:01;4.45;;;3.20;;
28245;SDS011;15510;52.512;13.300;2023-07-20T00:55:31;2.65;;;2.45;;
28245;SDS011;15510;52.512;13.300;2023-07-20T00:57:57;4.32;;;3.10;;
28245;SDS011;15510;52.512;13.300;2023-07-20T01:00:24;3.28;;;2.90;;
28245;SDS011;15510;52.512;13.300;2023-07-20T01:02:50;4.55;;;3.13;;
28245;SDS011;15510;52.512;13.300;2023-07-20T01:05:16;3.35;;;3.05;;
28245;SDS011;15510;52.512;13.300;2023-07-20T01:07:45;6.10;;;3.20;;
28245;SDS011;15510;52.512;13.300;2023-07-20T01:13:36;3.83;;;3.13;;
28245;SDS011;15510;52.512;13.300;2023-07-20T01:16:02;3.80;;;3.30;;
28245;SDS011;15510;52.512;13.300;2023-07-20T01:18:28;4.78;;;3.20;;
28245;SDS011;15510;52.512;13.300;2023-07-20T01:20:56;4.50;;;3.25;;
28245;SDS011;15510;52.512;13.300;2023-07-20T01:23:36;4.20;;;3.20;;
28245;SDS011;15510;52.512;13.300;2023-07-20T01:26:27;4.55;;;2.88;;
28245;SDS011;15510;52.512;13.300;2023-07-20T01:32:16;3.38;;;3.08;;
28245;SDS011;15510;52.512;13.300;2023-07-20T01:34:44;3.90;;;3.60;;
28245;SDS011;15510;52.512;13.300;2023-07-20T01:37:10;3.90;;;3.58;;
28245;SDS011;15510;52.512;13.300;2023-07-20T01:39:37;3.38;;;3.08;;
28245;SDS011;15510;52.512;13.300;2023-07-20T01:42:04;5.22;;;4.07;;
28245;SDS011;15510;52.512;13.300;2023-07-20T01:44:30;3.65;;;3.35;;
28245;SDS011;15510;52.512;13.300;2023-07-20T01:46:56;3.10;;;2.90;;
28245;SDS011;15510;52.512;13.300;2023-07-20T01:49:21;4.22;;;3.72;;
28245;SDS011;15510;52.512;13.300;2023-07-20T01:51:47;4.07;;;3.60;;
28245;SDS011;15510;52.512;13.300;2023-07-20T01:54:13;3.47;;;3.17;;
28245;SDS011;15510;52.512;13.300;2023-07-20T01:56:40;16.50;;;3.67;;
28245;SDS011;15510;52.512;13.300;2023-07-20T01:59:05;3.25;;;2.95;;
28245;SDS011;15510;52.512;13.300;2023-07-20T02:01:31;4.38;;;3.30;;
28245;SDS011;15510;52.512;13.300;2023-07-20T02:03:57;3.88;;;3.30;;
28245;SDS011;15510;52.512;13.300;2023-07-20T02:06:23;4.32;;;3.42;;
28245;SDS011;15510;52.512;13.300;2023-07-20T02:08:48;4.00;;;3.60;;
28245;SDS011;15510;52.512;13.300;2023-07-20T02:11:14;3.78;;;3.42;;
28245;SDS011;15510;52.512;13.300;2023-07-20T02:13:40;5.28;;;3.10;;
28245;SDS011;15510;52.512;13.300;2023-07-20T02:16:05;3.38;;;3.08;;
28245;SDS011;15510;52.512;13.300;2023-07-20T02:18:31;3.42;;;3.13;;
28245;SDS011;15510;52.512;13.300;2023-07-20T02:20:57;4.25;;;3.20;;
28245;SDS011;15510;52.512;13.300;2023-07-20T02:23:22;6.32;;;3.20;;
28245;SDS011;15510;52.512;13.300;2023-07-20T02:25:48;4.05;;;3.65;;
28245;SDS011;15510;52.512;13.300;2023-07-20T02:28:14;6.03;;;3.20;;
28245;SDS011;15510;52.512;13.300;2023-07-20T02:30:40;4.00;;;3.47;;
28245;SDS011;15510;52.512;13.300;2023-07-20T02:33:06;4.13;;;3.72;;
28245;SDS011;15510;52.512;13.300;2023-07-20T02:35:32;4.65;;;4.22;;
28245;SDS011;15510;52.512;13.300;2023-07-20T02:37:58;4.75;;;4.30;;
28245;SDS011;15510;52.512;13.300;2023-07-20T02:40:24;4.43;;;4.03;;
28245;SDS011;15510;52.512;13.300;2023-07-20T02:42:49;4.57;;;4.18;;
28245;SDS011;15510;52.512;13.300;2023-07-20T02:45:16;6.82;;;4.20;;
28245;SDS011;15510;52.512;13.300;2023-07-20T02:47:42;5.75;;;4.32;;
28245;SDS011;15510;52.512;13.300;2023-07-20T02:50:07;4.32;;;4.03;;
28245;SDS011;15510;52.512;13.300;2023-07-20T02:52:33;5.97;;;4.82;;
28245;SDS011;15510;52.512;13.300;2023-07-20T02:54:59;5.53;;;5.03;;
28245;SDS011;15510;52.512;13.300;2023-07-20T02:57:26;6.55;;;5.93;;
28245;SDS011;15510;52.512;13.300;2023-07-20T02:59:52;6.20;;;5.60;;
28245;SDS011;15510;52.512;13.300;2023-07-20T03:02:18;7.78;;;6.20;;
28245;SDS011;15510;52.512;13.300;2023-07-20T03:04:44;7.25;;;6.47;;
28245;SDS011;15510;52.512;13.300;2023-07-20T03:07:10;6.80;;;6.20;;
28245;SDS011;15510;52.512;13.300;2023-07-20T03:09:35;6.78;;;5.75;;
28245;SDS011;15510;52.512;13.300;2023-07-20T03:12:01;6.15;;;5.65;;
28245;SDS011;15510;52.512;13.300;2023-07-20T03:14:29;6.70;;;6.05;;
28245;SDS011;15510;52.512;13.300;2023-07-20T03:16:55;6.78;;;6.15;;
28245;SDS011;15510;52.512;13.300;2023-07-20T03:19:21;8.45;;;6.68;;
28245;SDS011;15510;52.512;13.300;2023-07-20T03:21:47;7.65;;;6.32;;
28245;SDS011;15510;52.512;13.300;2023-07-20T03:24:13;8.80;;;6.40;;
28245;SDS011;15510;52.512;13.300;2023-07-20T03:26:39;6.53;;;5.93;;
28245;SDS011;15510;52.512;13.300;2023-07-20T03:29:06;7.75;;;5.90;;
28245;SDS011;15510;52.512;13.300;2023-07-20T03:31:32;7.00;;;6.07;;
28245;SDS011;15510;52.512;13.300;2023-07-20T03:33:58;7.05;;;6.35;;
28245;SDS011;15510;52.512;13.300;2023-07-20T03:36:24;7.22;;;6.45;;
28245;SDS011;15510;52.512;13.300;2023-07-20T03:38:49;7.82;;;6.25;;
28245;SDS011;15510;52.512;13.300;2023-07-20T03:41:15;8.93;;;6.78;;
28245;SDS011;15510;52.512;13.300;2023-07-20T03:43:41;7.80;;;6.82;;
28245;SDS011;15510;52.512;13.300;2023-07-20T03:46:07;7.60;;;6.82;;
28245;SDS011;15510;52.512;13.300;2023-07-20T03:48:33;7.60;;;6.95;;
28245;SDS011;15510;52.512;13.300;2023-07-20T03:50:59;8.20;;;7.40;;
28245;SDS011;15510;52.512;13.300;2023-07-20T03:53:26;7.30;;;6.60;;
28245;SDS011;15510;52.512;13.300;2023-07-20T03:55:52;6.78;;;6.18;;
28245;SDS011;15510;52.512;13.300;2023-07-20T03:58:18;7.72;;;6.93;;
28245;SDS011;15510;52.512;13.300;2023-07-20T04:00:48;7.88;;;7.07;;
28245;SDS011;15510;52.512;13.300;2023-07-20T04:03:17;7.53;;;6.82;;
28245;SDS011;15510;52.512;13.300;2023-07-20T04:05:46;6.85;;;6.35;;
28245;SDS011;15510;52.512;13.300;2023-07-20T04:08:12;6.55;;;5.82;;
28245;SDS011;15510;52.512;13.300;2023-07-20T04:10:38;7.05;;;6.45;;
28245;SDS011;15510;52.512;13.300;2023-07-20T04:13:04;6.85;;;6.22;;
28245;SDS011;15510;52.512;13.300;2023-07-20T04:15:30;7.57;;;6.88;;
28245;SDS011;15510;52.512;13.300;2023-07-20T04:17:56;7.40;;;6.63;;
28245;SDS011;15510;52.512;13.300;2023-07-20T04:20:23;6.88;;;6.22;;
28245;SDS011;15510;52.512;13.300;2023-07-20T04:22:49;7.35;;;6.68;;
28245;SDS011;15510;52.512;13.300;2023-07-20T04:25:16;12.30;;;7.13;;
28245;SDS011;15510;52.512;13.300;2023-07-20T04:27:43;7.75;;;6.75;;
28245;SDS011;15510;52.512;13.300;2023-07-20T04:30:09;7.45;;;6.70;;
28245;SDS011;15510;52.512;13.300;2023-07-20T04:32:37;6.63;;;6.03;;
28245;SDS011;15510;52.512;13.300;2023-07-20T04:35:06;7.20;;;6.50;;
28245;SDS011;15510;52.512;13.300;2023-07-20T04:37:38;8.18;;;6.43;;
28245;SDS011;15510;52.512;13.300;2023-07-20T04:40:12;6.82;;;6.22;;
28245;SDS011;15510;52.512;13.300;2023-07-20T04:42:40;6.38;;;5.85;;
28245;SDS011;15510;52.512;13.300;2023-07-20T04:45:06;6.57;;;5.93;;
28245;SDS011;15510;52.512;13.300;2023-07-20T04:47:33;6.75;;;5.75;;
28245;SDS011;15510;52.512;13.300;2023-07-20T04:49:59;7.18;;;6.38;;
28245;SDS011;15510;52.512;13.300;2023-07-20T04:52:25;7.20;;;6.53;;
28245;SDS011;15510;52.512;13.300;2023-07-20T04:54:50;6.72;;;6.05;;
28245;SDS011;15510;52.512;13.300;2023-07-20T04:57:16;6.80;;;6.18;;
28245;SDS011;15510;52.512;13.300;2023-07-20T04:59:57;9.48;;;6.80;;
28245;SDS011;15510;52.512;13.300;2023-07-20T05:02:22;6.13;;;5.57;;
28245;SDS011;15510;52.512;13.300;2023-07-20T05:04:48;6.38;;;5.20;;
28245;SDS011;15510;52.512;13.300;2023-07-20T05:07:14;6.00;;;5.18;;
28245;SDS011;15510;52.512;13.300;2023-07-20T05:09:40;5.50;;;5.00;;
28245;SDS011;15510;52.512;13.300;2023-07-20T05:12:05;5.13;;;4.55;;
28245;SDS011;15510;52.512;13.300;2023-07-20T05:14:32;6.28;;;5.07;;
28245;SDS011;15510;52.512;13.300;2023-07-20T05:16:58;7.43;;;5.00;;
28245;SDS011;15510;52.512;13.300;2023-07-20T05:19:24;6.20;;;5.60;;
28245;SDS011;15510;52.512;13.300;2023-07-20T05:21:50;5.63;;;4.97;;
28245;SDS011;15510;52.512;13.300;2023-07-20T05:24:16;5.32;;;4.93;;
28245;SDS011;15510;52.512;13.300;2023-07-20T05:26:42;5.82;;;5.22;;
28245;SDS011;15510;52.512;13.300;2023-07-20T05:29:07;5.22;;;4.72;;
28245;SDS011;15510;52.512;13.300;2023-07-20T05:31:33;5.13;;;4.65;;
28245;SDS011;15510;52.512;13.300;2023-07-20T05:33:59;5.10;;;4.70;;
28245;SDS011;15510;52.512;13.300;2023-07-20T05:36:25;6.40;;;5.20;;
28245;SDS011;15510;52.512;13.300;2023-07-20T05:38:50;6.18;;;5.57;;
28245;SDS011;15510;52.512;13.300;2023-07-20T05:41:16;7.90;;;5.68;;
28245;SDS011;15510;52.512;13.300;2023-07-20T05:43:48;6.28;;;5.70;;
28245;SDS011;15510;52.512;13.300;2023-07-20T05:46:14;5.18;;;4.63;;
28245;SDS011;15510;52.512;13.300;2023-07-20T05:48:40;5.20;;;4.80;;
28245;SDS011;15510;52.512;13.300;2023-07-20T05:51:06;6.85;;;5.18;;
28245;SDS011;15510;52.512;13.300;2023-07-20T05:53:32;5.55;;;5.07;;
28245;SDS011;15510;52.512;13.300;2023-07-20T05:55:58;5.75;;;5.25;;
28245;SDS011;15510;52.512;13.300;2023-07-20T05:58:24;5.60;;;4.93;;
28245;SDS011;15510;52.512;13.300;2023-07-20T06:00:50;6.60;;;5.97;;
28245;SDS011;15510;52.512;13.300;2023-07-20T06:03:18;6.30;;;5.70;;
28245;SDS011;15510;52.512;13.300;2023-07-20T06:05:49;8.77;;;5.38;;
28245;SDS011;15510;52.512;13.300;2023-07-20T06:08:15;5.72;;;4.97;;
28245;SDS011;15510;52.512;13.300;2023-07-20T06:10:41;7.18;;;4.53;;
28245;SDS011;15510;52.512;13.300;2023-07-20T06:13:06;7.57;;;5.40;;
28245;SDS011;15510;52.512;13.300;2023-07-20T06:15:32;9.10;;;5.47;;
28245;SDS011;15510;52.512;13.300;2023-07-20T06:18:01;4.38;;;3.97;;
28245;SDS011;15510;52.512;13.300;2023-07-20T06:20:26;5.40;;;4.07;;
28245;SDS011;15510;52.512;13.300;2023-07-20T06:22:56;4.72;;;3.92;;
28245;SDS011;15510;52.512;13.300;2023-07-20T06:25:22;3.90;;;3.17;;
28245;SDS011;15510;52.512;13.300;2023-07-20T06:27:50;4.00;;;3.70;;
28245;SDS011;15510;52.512;13.300;2023-07-20T06:30:19;5.20;;;3.78;;
28245;SDS011;15510;52.512;13.300;2023-07-20T06:32:48;3.13;;;2.83;;
28245;SDS011;15510;52.512;13.300;2023-07-20T06:35:14;3.47;;;3.17;;
28245;SDS011;15510;52.512;13.300;2023-07-20T06:37:40;4.40;;;3.15;;
28245;SDS011;15510;52.512;13.300;2023-07-20T06:40:07;4.20;;;2.80;;
28245;SDS011;15510;52.512;13.300;2023-07-20T06:42:36;3.67;;;3.00;;
28245;SDS011;15510;52.512;13.300;2023-07-20T06:45:02;5.93;;;2.85;;
28245;SDS011;15510;52.512;13.300;2023-07-20T06:47:28;5.88;;;2.20;;
28245;SDS011;15510;52.512;13.300;2023-07-20T06:49:54;5.05;;;3.50;;
28245;SDS011;15510;52.512;13.300;2023-07-20T06:52:22;2.75;;;1.88;;
28245;SDS011;15510;52.512;13.300;2023-07-20T06:54:51;3.00;;;1.65;;
28245;SDS011;15510;52.512;13.300;2023-07-20T06:57:19;1.75;;;1.30;;
28245;SDS011;15510;52.512;13.300;2023-07-20T06:59:45;4.53;;;1.50;;
28245;SDS011;15510;52.512;13.300;2023-07-20T07:02:11;1.60;;;1.50;;
28245;SDS011;15510;52.512;13.300;2023-07-20T07:04:36;1.80;;;1.20;;
28245;SDS011;15510;52.512;13.300;2023-07-20T07:07:02;1.50;;;1.35;;
28245;SDS011;15510;52.512;13.300;2023-07-20T07:09:29;2.58;;;1.52;;
28245;SDS011;15510;52.512;13.300;2023-07-20T07:11:57;5.03;;;1.25;;
28245;SDS011;15510;52.512;13.300;2023-07-20T07:14:24;2.45;;;1.02;;
28245;SDS011;15510;52.512;13.300;2023-07-20T07:16:49;2.10;;;0.80;;
28245;SDS011;15510;52.512;13.300;2023-07-20T07:19:15;2.75;;;0.88;;
28245;SDS011;15510;52.512;13.300;2023-07-20T07:21:41;2.05;;;1.60;;
28245;SDS011;15510;52.512;13.300;2023-07-20T07:24:07;2.50;;;1.30;;
28245;SDS011;15510;52.512;13.300;2023-07-20T07:26:35;4.57;;;1.20;;
28245;SDS011;15510;52.512;13.300;2023-07-20T07:29:04;2.38;;;0.90;;
28245;SDS011;15510;52.512;13.300;2023-07-20T07:31:33;1.65;;;0.95;;
28245;SDS011;15510;52.512;13.300;2023-07-20T07:34:01;1.38;;;0.90;;
28245;SDS011;15510;52.512;13.300;2023-07-20T07:36:28;3.80;;;0.73;;
28245;SDS011;15510;52.512;13.300;2023-07-20T07:38:53;2.25;;;1.25;;
28245;SDS011;15510;52.512;13.300;2023-07-20T07:41:24;3.13;;;1.10;;
28245;SDS011;15510;52.512;13.300;2023-07-20T07:43:50;2.13;;;0.70;;
28245;SDS011;15510;52.512;13.300;2023-07-20T07:46:16;1.80;;;0.60;;
28245;SDS011;15510;52.512;13.300;2023-07-20T07:48:42;1.10;;;0.40;;
28245;SDS011;15510;52.512;13.300;2023-07-20T07:51:08;1.77;;;0.80;;
28245;SDS011;15510;52.512;13.300;2023-07-20T07:53:34;4.43;;;0.75;;
28245;SDS011;15510;52.512;13.300;2023-07-20T07:56:02;1.52;;;0.30;;
28245;SDS011;15510;52.512;13.300;2023-07-20T07:58:28;0.43;;;0.40;;
28245;SDS011;15510;52.512;13.300;2023-07-20T08:00:54;0.60;;;0.50;;
28245;SDS011;15510;52.512;13.300;2023-07-20T08:03:20;4.78;;;3.55;;
28245;SDS011;15510;52.512;13.300;2023-07-20T08:05:46;4.65;;;1.02;;
28245;SDS011;15510;52.512;13.300;2023-07-20T08:08:12;1.33;;;0.85;;
28245;SDS011;15510;52.512;13.300;2023-07-20T08:10:38;1.75;;;0.95;;
28245;SDS011;15510;52.512;13.300;2023-07-20T08:13:03;1.00;;;0.90;;
28245;SDS011;15510;52.512;13.300;2023-07-20T08:15:29;4.05;;;0.50;;
28245;SDS011;15510;52.512;13.300;2023-07-20T08:17:55;0.80;;;0.40;;
28245;SDS011;15510;52.512;13.300;2023-07-20T08:20:21;1.80;;;0.50;;
28245;SDS011;15510;52.512;13.300;2023-07-20T08:22:51;0.75;;;0.30;;
28245;SDS011;15510;52.512;13.300;2023-07-20T08:25:19;0.60;;;0.60;;
28245;SDS011;15510;52.512;13.300;2023-07-20T08:27:45;0.88;;;0.60;;
28245;SDS011;15510;52.512;13.300;2023-07-20T08:30:12;5.22;;;3.00;;
28245;SDS011;15510;52.512;13.300;2023-07-20T08:32:38;1.90;;;1.02;;
28245;SDS011;15510;52.512;13.300;2023-07-20T08:35:05;3.67;;;0.50;;
28245;SDS011;15510;52.512;13.300;2023-07-20T08:37:31;0.40;;;0.40;;
28245;SDS011;15510;52.512;13.300;2023-07-20T08:39:57;0.60;;;0.47;;
28245;SDS011;15510;52.512;13.300;2023-07-20T08:42:22;1.48;;;0.35;;
28245;SDS011;15510;52.512;13.300;2023-07-20T08:44:48;0.45;;;0.30;;
28245;SDS011;15510;52.512;13.300;2023-07-20T08:47:16;0.60;;;0.30;;
28245;SDS011;15510;52.512;13.300;2023-07-20T08:49:44;0.30;;;0.20;;
28245;SDS011;15510;52.512;13.300;2023-07-20T08:52:13;0.50;;;0.30;;
28245;SDS011;15510;52.512;13.300;2023-07-20T08:54:39;0.88;;;0.30;;
28245;SDS011;15510;52.512;13.300;2023-07-20T08:57:05;2.42;;;0.70;;
28245;SDS011;15510;52.512;13.300;2023-07-20T08:59:32;0.20;;;0.20;;
28245;SDS011;15510;52.512;13.300;2023-07-20T09:02:01;0.20;;;0.20;;
28245;SDS011;15510;52.512;13.300;2023-07-20T09:04:29;0.50;;;0.30;;
28245;SDS011;15510;52.512;13.300;2023-07-20T09:06:55;1.95;;;0.35;;
28245;SDS011;15510;52.512;13.300;2023-07-20T09:09:22;1.92;;;0.20;;
28245;SDS011;15510;52.512;13.300;2023-07-20T09:11:51;1.08;;;0.30;;
28245;SDS011;15510;52.512;13.300;2023-07-20T09:14:17;0.38;;;0.20;;
28245;SDS011;15510;52.512;13.300;2023-07-20T09:16:53;0.30;;;0.30;;
28245;SDS011;15510;52.512;13.300;2023-07-20T09:19:20;0.85;;;0.40;;
28245;SDS011;15510;52.512;13.300;2023-07-20T09:21:50;4.30;;;0.47;;
28245;SDS011;15510;52.512;13.300;2023-07-20T09:24:20;0.35;;;0.30;;
28245;SDS011;15510;52.512;13.300;2023-07-20T09:26:47;1.55;;;0.30;;
28245;SDS011;15510;52.512;13.300;2023-07-20T09:29:14;0.63;;;0.30;;
28245;SDS011;15510;52.512;13.300;2023-07-20T09:31:43;1.65;;;0.20;;
28245;SDS011;15510;52.512;13.300;2023-07-20T09:34:29;1.35;;;0.30;;
28245;SDS011;15510;52.512;13.300;2023-07-20T09:36:57;1.17;;;0.35;;
28245;SDS011;15510;52.512;13.300;2023-07-20T09:39:26;0.32;;;0.30;;
28245;SDS011;15510;52.512;13.300;2023-07-20T09:41:52;0.70;;;0.30;;
28245;SDS011;15510;52.512;13.300;2023-07-20T09:44:18;1.38;;;0.38;;
28245;SDS011;15510;52.512;13.300;2023-07-20T09:46:45;2.25;;;0.40;;
28245;SDS011;15510;52.512;13.300;2023-07-20T09:49:16;1.50;;;0.30;;
28245;SDS011;15510;52.512;13.300;2023-07-20T09:51:43;1.98;;;0.45;;
28245;SDS011;15510;52.512;13.300;2023-07-20T09:54:13;4.32;;;0.45;;
28245;SDS011;15510;52.512;13.300;2023-07-20T09:56:39;0.90;;;0.68;;
28245;SDS011;15510;52.512;13.300;2023-07-20T09:59:05;2.67;;;0.70;;
28245;SDS011;15510;52.512;13.300;2023-07-20T10:01:32;0.57;;;0.45;;
28245;SDS011;15510;52.512;13.300;2023-07-20T10:04:00;1.55;;;0.40;;
28245;SDS011;15510;52.512;13.300;2023-07-20T10:06:30;0.50;;;0.43;;
28245;SDS011;15510;52.512;13.300;2023-07-20T10:09:00;2.33;;;2.10;;
28245;SDS011;15510;52.512;13.300;2023-07-20T10:11:32;1.95;;;0.80;;
28245;SDS011;15510;52.512;13.300;2023-07-20T10:14:02;3.97;;;0.60;;
28245;SDS011;15510;52.512;13.300;2023-07-20T10:16:32;1.70;;;0.50;;
28245;SDS011;15510;52.512;13.300;2023-07-20T10:19:11;1.10;;;0.70;;
28245;SDS011;15510;52.512;13.300;2023-07-20T10:21:51;1.75;;;0.68;;
28245;SDS011;15510;52.512;13.300;2023-07-20T10:24:26;26.23;;;23.08;;
28245;SDS011;15510;52.512;13.300;2023-07-20T10:26:54;1.80;;;1.60;;
28245;SDS011;15510;52.512;13.300;2023-07-20T10:29:21;4.90;;;0.63;;
28245;SDS011;15510;52.512;13.300;2023-07-20T10:31:48;2.97;;;0.80;;
28245;SDS011;15510;52.512;13.300;2023-07-20T10:34:14;1.00;;;0.88;;
28245;SDS011;15510;52.512;13.300;2023-07-20T10:36:44;3.95;;;0.70;;
28245;SDS011;15510;52.512;13.300;2023-07-20T10:39:24;3.55;;;0.80;;
28245;SDS011;15510;52.512;13.300;2023-07-20T10:44:37;0.90;;;0.80;;
28245;SDS011;15510;52.512;13.300;2023-07-20T10:47:10;1.67;;;0.80;;
28245;SDS011;15510;52.512;13.300;2023-07-20T10:49:59;2.35;;;1.00;;
28245;SDS011;15510;52.512;13.300;2023-07-20T10:52:36;2.97;;;0.73;;
28245;SDS011;15510;52.512;13.300;2023-07-20T10:55:15;2.10;;;1.02;;
28245;SDS011;15510;52.512;13.300;2023-07-20T10:57:41;3.28;;;0.93;;
28245;SDS011;15510;52.512;13.300;2023-07-20T11:00:11;1.02;;;0.60;;
28245;SDS011;15510;52.512;13.300;2023-07-20T11:02:48;2.05;;;0.70;;
28245;SDS011;15510;52.512;13.300;2023-07-20T11:08:02;1.50;;;0.70;;
28245;SDS011;15510;52.512;13.300;2023-07-20T11:10:29;1.25;;;0.70;;
28245;SDS011;15510;52.512;13.300;2023-07-20T11:15:47;2.38;;;1.35;;
28245;SDS011;15510;52.512;13.300;2023-07-20T11:18:26;2.75;;;1.40;;
28245;SDS011;15510;52.512;13.300;2023-07-20T11:20:53;1.00;;;0.90;;
28245;SDS011;15510;52.512;13.300;2023-07-20T11:23:21;3.83;;;1.10;;
28245;SDS011;15510;52.512;13.300;2023-07-20T11:25:48;3.88;;;0.77;;
28245;SDS011;15510;52.512;13.300;2023-07-20T11:28:14;2.00;;;1.20;;
28245;SDS011;15510;52.512;13.300;2023-07-20T11:30:40;4.25;;;1.45;;
28245;SDS011;15510;52.512;13.300;2023-07-20T11:33:09;4.57;;;0.90;;
28245;SDS011;15510;52.512;13.300;2023-07-20T11:35:42;0.77;;;0.60;;
28245;SDS011;15510;52.512;13.300;2023-07-20T11:43:25;3.72;;;0.80;;
28245;SDS011;15510;52.512;13.300;2023-07-20T11:48:22;1.63;;;0.50;;
28245;SDS011;15510;52.512;13.300;2023-07-20T11:50:48;1.15;;;0.47;;
28245;SDS011;15510;52.512;13.300;2023-07-20T11:53:14;1.73;;;0.10;;
28245;SDS011;15510;52.512;13.300;2023-07-20T11:55:41;0.25;;;0.22;;
28245;SDS011;15510;52.512;13.300;2023-07-20T11:58:07;1.10;;;0.40;;
28245;SDS011;15510;52.512;13.300;2023-07-20T12:00:34;0.30;;;0.30;;
28245;SDS011;15510;52.512;13.300;2023-07-20T12:03:00;0.73;;;0.30;;
28245;SDS011;15510;52.512;13.300;2023-07-20T12:05:27;2.35;;;0.50;;
28245;SDS011;15510;52.512;13.300;2023-07-20T12:07:52;0.93;;;0.40;;
28245;SDS011;15510;52.512;13.300;2023-07-20T12:10:26;5.78;;;5.20;;
28245;SDS011;15510;52.512;13.300;2023-07-20T12:13:01;0.65;;;0.50;;
28245;SDS011;15510;52.512;13.300;2023-07-20T12:15:28;0.30;;;0.20;;
28245;SDS011;15510;52.512;13.300;2023-07-20T12:17:55;0.63;;;0.40;;
28245;SDS011;15510;52.512;13.300;2023-07-20T12:20:32;1.13;;;0.50;;
28245;SDS011;15510;52.512;13.300;2023-07-20T12:23:12;1.75;;;0.45;;
28245;SDS011;15510;52.512;13.300;2023-07-20T12:25:42;0.55;;;0.30;;
28245;SDS011;15510;52.512;13.300;2023-07-20T12:28:12;0.73;;;0.30;;
28245;SDS011;15510;52.512;13.300;2023-07-20T12:30:39;1.40;;;0.60;;
28245;SDS011;15510;52.512;13.300;2023-07-20T12:33:06;1.10;;;0.30;;
28245;SDS011;15510;52.512;13.300;2023-07-20T12:35:32;1.02;;;0.50;;
28245;SDS011;15510;52.512;13.300;2023-07-20T12:37:58;3.30;;;0.30;;
28245;SDS011;15510;52.512;13.300;2023-07-20T12:40:24;0.95;;;0.30;;
28245;SDS011;15510;52.512;13.300;2023-07-20T12:42:50;0.20;;;0.20;;
28245;SDS011;15510;52.512;13.300;2023-07-20T12:45:16;0.22;;;0.10;;
28245;SDS011;15510;52.512;13.300;2023-07-20T12:47:42;4.90;;;3.72;;
28245;SDS011;15510;52.512;13.300;2023-07-20T12:50:11;2.30;;;0.30;;
28245;SDS011;15510;52.512;13.300;2023-07-20T12:52:38;2.65;;;0.45;;
28245;SDS011;15510;52.512;13.300;2023-07-20T12:55:05;0.75;;;0.43;;
28245;SDS011;15510;52.512;13.300;2023-07-20T12:57:33;0.77;;;0.10;;
28245;SDS011;15510;52.512;13.300;2023-07-20T13:00:00;0.45;;;0.22;;
28245;SDS011;15510;52.512;13.300;2023-07-20T13:02:28;1.20;;;0.60;;
28245;SDS011;15510;52.512;13.300;2023-07-20T13:04:58;0.50;;;0.25;;
28245;SDS011;15510;52.512;13.300;2023-07-20T13:07:31;0.30;;;0.20;;
28245;SDS011;15510;52.512;13.300;2023-07-20T13:10:01;0.30;;;0.30;;
28245;SDS011;15510;52.512;13.300;2023-07-20T13:12:29;0.80;;;0.68;;
28245;SDS011;15510;52.512;13.300;2023-07-20T13:14:56;1.25;;;0.17;;
28245;SDS011;15510;52.512;13.300;2023-07-20T13:17:22;1.95;;;0.10;;
28245;SDS011;15510;52.512;13.300;2023-07-20T13:19:48;0.57;;;0.10;;
28245;SDS011;15510;52.512;13.300;2023-07-20T13:22:14;0.47;;;0.10;;
28245;SDS011;15510;52.512;13.300;2023-07-20T13:24:40;1.17;;;0.35;;
28245;SDS011;15510;52.512;13.300;2023-07-20T13:27:10;0.52;;;0.20;;
28245;SDS011;15510;52.512;13.300;2023-07-20T13:29:36;2.03;;;0.40;;
28245;SDS011;15510;52.512;13.300;2023-07-20T13:32:02;1.48;;;0.20;;
28245;SDS011;15510;52.512;13.300;2023-07-20T13:34:30;2.80;;;0.20;;
28245;SDS011;15510;52.512;13.300;2023-07-20T13:36:56;0.88;;;0.20;;
28245;SDS011;15510;52.512;13.300;2023-07-20T13:39:22;2.08;;;0.20;;
28245;SDS011;15510;52.512;13.300;2023-07-20T13:41:49;0.50;;;0.10;;
28245;SDS011;15510;52.512;13.300;2023-07-20T13:44:15;0.88;;;0.30;;
28245;SDS011;15510;52.512;13.300;2023-07-20T13:46:41;1.98;;;0.30;;
28245;SDS011;15510;52.512;13.300;2023-07-20T13:49:06;1.35;;;0.30;;
28245;SDS011;15510;52.512;13.300;2023-07-20T13:51:32;0.40;;;0.20;;
28245;SDS011;15510;52.512;13.300;2023-07-20T13:53:58;5.57;;;3.00;;
28245;SDS011;15510;52.512;13.300;2023-07-20T13:56:24;14.43;;;13.02;;
28245;SDS011;15510;52.512;13.300;2023-07-20T13:58:50;0.85;;;0.22;;
28245;SDS011;15510;52.512;13.300;2023-07-20T14:01:16;1.52;;;1.15;;
28245;SDS011;15510;52.512;13.300;2023-07-20T14:03:43;0.90;;;0.40;;
28245;SDS011;15510;52.512;13.300;2023-07-20T14:06:09;0.52;;;0.25;;
28245;SDS011;15510;52.512;13.300;2023-07-20T14:08:35;1.42;;;0.30;;
28245;SDS011;15510;52.512;13.300;2023-07-20T14:11:00;2.17;;;0.17;;
28245;SDS011;15510;52.512;13.300;2023-07-20T14:13:26;1.60;;;0.20;;
28245;SDS011;15510;52.512;13.300;2023-07-20T14:15:52;0.10;;;0.10;;
28245;SDS011;15510;52.512;13.300;2023-07-20T14:18:18;0.98;;;0.40;;
28245;SDS011;15510;52.512;13.300;2023-07-20T14:20:43;1.13;;;0.20;;
28245;SDS011;15510;52.512;13.300;2023-07-20T14:23:09;1.27;;;0.50;;
28245;SDS011;15510;52.512;13.300;2023-07-20T14:25:35;1.45;;;0.20;;
28245;SDS011;15510;52.512;13.300;2023-07-20T14:28:01;1.92;;;0.30;;
28245;SDS011;15510;52.512;13.300;2023-07-20T14:30:27;0.85;;;0.75;;
28245;SDS011;15510;52.512;13.300;2023-07-20T14:32:53;0.30;;;0.20;;
28245;SDS011;15510;52.512;13.300;2023-07-20T14:35:18;0.82;;;0.65;;
28245;SDS011;15510;52.512;13.300;2023-07-20T14:37:45;3.80;;;0.40;;
28245;SDS011;15510;52.512;13.300;2023-07-20T14:40:13;1.92;;;0.60;;
28245;SDS011;15510;52.512;13.300;2023-07-20T14:42:39;1.60;;;0.30;;
28245;SDS011;15510;52.512;13.300;2023-07-20T14:45:05;0.70;;;0.50;;
28245;SDS011;15510;52.512;13.300;2023-07-20T14:47:31;2.40;;;0.20;;
28245;SDS011;15510;52.512;13.300;2023-07-20T14:50:00;0.68;;;0.20;;
28245;SDS011;15510;52.512;13.300;2023-07-20T14:52:27;4.65;;;0.40;;
28245;SDS011;15510;52.512;13.300;2023-07-20T14:54:53;1.02;;;0.15;;
28245;SDS011;15510;52.512;13.300;2023-07-20T14:57:19;2.47;;;0.20;;